<?xml version="1.0" encoding="UTF-8" standalone="no" ?>
<gpx xmlns="http://www.topografix.com/GPX/1/1" xmlns:xsi="http://www.w3.org/2001/XMLSchema-instance" xsi:schemaLocation="http://www.topografix.com/GPX/1/1 http://www.topografix.com/GPX/1/1/gpx.xsd" version="1.1" creator="VisuGPX - https://www.visugpx.com">
  <metadata>
    <name>Yzeures/ vers l'étang de la gabrière</name>
  </metadata>
  <trk>
    <name><![CDATA[2162841-boucle vers l'étang de la gabrière]]></name>
    <trkseg>
      <trkpt lat="46.78762" lon="0.85676">
        <ele>64</ele>
        <time>2021-03-23T12:09:42Z</time>
      </trkpt>
      <trkpt lat="46.78775" lon="0.8562">
        <ele>64</ele>
        <time>2021-03-23T12:09:49Z</time>
      </trkpt>
      <trkpt lat="46.78794" lon="0.85598">
        <ele>64</ele>
        <time>2021-03-23T12:09:54Z</time>
      </trkpt>
      <trkpt lat="46.78879" lon="0.85636">
        <ele>67</ele>
        <time>2021-03-23T12:10:09Z</time>
      </trkpt>
      <trkpt lat="46.78885" lon="0.85796">
        <ele>69</ele>
        <time>2021-03-23T12:10:29Z</time>
      </trkpt>
      <trkpt lat="46.78883" lon="0.85831">
        <ele>69</ele>
        <time>2021-03-23T12:10:33Z</time>
      </trkpt>
      <trkpt lat="46.78806" lon="0.86148">
        <ele>70</ele>
        <time>2021-03-23T12:11:14Z</time>
      </trkpt>
      <trkpt lat="46.78728" lon="0.86318">
        <ele>68</ele>
        <time>2021-03-23T12:11:39Z</time>
      </trkpt>
      <trkpt lat="46.78704" lon="0.86377">
        <ele>67</ele>
        <time>2021-03-23T12:11:47Z</time>
      </trkpt>
      <trkpt lat="46.78651" lon="0.86534">
        <ele>67</ele>
        <time>2021-03-23T12:12:09Z</time>
      </trkpt>
      <trkpt lat="46.78618" lon="0.86642">
        <ele>68</ele>
        <time>2021-03-23T12:12:23Z</time>
      </trkpt>
      <trkpt lat="46.78572" lon="0.86929">
        <ele>72</ele>
        <time>2021-03-23T12:12:59Z</time>
      </trkpt>
      <trkpt lat="46.78538" lon="0.87184">
        <ele>71</ele>
        <time>2021-03-23T12:13:31Z</time>
      </trkpt>
      <trkpt lat="46.78539" lon="0.87363">
        <ele>73</ele>
        <time>2021-03-23T12:13:53Z</time>
      </trkpt>
      <trkpt lat="46.7828" lon="0.88469">
        <ele>68</ele>
        <time>2021-03-23T12:16:15Z</time>
      </trkpt>
      <trkpt lat="46.78262" lon="0.88536">
        <ele>67</ele>
        <time>2021-03-23T12:16:24Z</time>
      </trkpt>
      <trkpt lat="46.76935" lon="0.9211">
        <ele>67</ele>
        <time>2021-03-23T12:24:39Z</time>
      </trkpt>
      <trkpt lat="46.76889" lon="0.92226">
        <ele>68</ele>
        <time>2021-03-23T12:24:55Z</time>
      </trkpt>
      <trkpt lat="46.76823" lon="0.9232">
        <ele>68</ele>
        <time>2021-03-23T12:25:12Z</time>
      </trkpt>
      <trkpt lat="46.7647" lon="0.92748">
        <ele>69</ele>
        <time>2021-03-23T12:26:33Z</time>
      </trkpt>
      <trkpt lat="46.75764" lon="0.93594">
        <ele>69</ele>
        <time>2021-03-23T12:29:16Z</time>
      </trkpt>
      <trkpt lat="46.75615" lon="0.93779">
        <ele>68</ele>
        <time>2021-03-23T12:29:51Z</time>
      </trkpt>
      <trkpt lat="46.75197" lon="0.94286">
        <ele>70</ele>
        <time>2021-03-23T12:31:28Z</time>
      </trkpt>
      <trkpt lat="46.75053" lon="0.94465">
        <ele>70</ele>
        <time>2021-03-23T12:32:01Z</time>
      </trkpt>
      <trkpt lat="46.74998" lon="0.94515">
        <ele>71</ele>
        <time>2021-03-23T12:32:13Z</time>
      </trkpt>
      <trkpt lat="46.7482" lon="0.94639">
        <ele>69</ele>
        <time>2021-03-23T12:32:48Z</time>
      </trkpt>
      <trkpt lat="46.74665" lon="0.94743">
        <ele>70</ele>
        <time>2021-03-23T12:33:18Z</time>
      </trkpt>
      <trkpt lat="46.74537" lon="0.94825">
        <ele>70</ele>
        <time>2021-03-23T12:33:43Z</time>
      </trkpt>
      <trkpt lat="46.74398" lon="0.9492">
        <ele>71</ele>
        <time>2021-03-23T12:34:10Z</time>
      </trkpt>
      <trkpt lat="46.73717" lon="0.95366">
        <ele>72</ele>
        <time>2021-03-23T12:36:23Z</time>
      </trkpt>
      <trkpt lat="46.73643" lon="0.95371">
        <ele>70</ele>
        <time>2021-03-23T12:36:36Z</time>
      </trkpt>
      <trkpt lat="46.73592" lon="0.95369">
        <ele>72</ele>
        <time>2021-03-23T12:36:45Z</time>
      </trkpt>
      <trkpt lat="46.73538" lon="0.95381">
        <ele>73</ele>
        <time>2021-03-23T12:36:55Z</time>
      </trkpt>
      <trkpt lat="46.73506" lon="0.95378">
        <ele>73</ele>
        <time>2021-03-23T12:37:01Z</time>
      </trkpt>
      <trkpt lat="46.73485" lon="0.9538">
        <ele>73</ele>
        <time>2021-03-23T12:37:05Z</time>
      </trkpt>
      <trkpt lat="46.73459" lon="0.95386">
        <ele>73</ele>
        <time>2021-03-23T12:37:09Z</time>
      </trkpt>
      <trkpt lat="46.73441" lon="0.95401">
        <ele>73</ele>
        <time>2021-03-23T12:37:13Z</time>
      </trkpt>
      <trkpt lat="46.73457" lon="0.95485">
        <ele>73</ele>
        <time>2021-03-23T12:37:24Z</time>
      </trkpt>
      <trkpt lat="46.73297" lon="0.9563">
        <ele>74</ele>
        <time>2021-03-23T12:37:57Z</time>
      </trkpt>
      <trkpt lat="46.73189" lon="0.95735">
        <ele>76</ele>
        <time>2021-03-23T12:38:20Z</time>
      </trkpt>
      <trkpt lat="46.73128" lon="0.95785">
        <ele>76</ele>
        <time>2021-03-23T12:38:33Z</time>
      </trkpt>
      <trkpt lat="46.73092" lon="0.95848">
        <ele>76</ele>
        <time>2021-03-23T12:38:43Z</time>
      </trkpt>
      <trkpt lat="46.73071" lon="0.95867">
        <ele>76</ele>
        <time>2021-03-23T12:38:47Z</time>
      </trkpt>
      <trkpt lat="46.73046" lon="0.9588">
        <ele>78</ele>
        <time>2021-03-23T12:38:52Z</time>
      </trkpt>
      <trkpt lat="46.7303" lon="0.95893">
        <ele>79</ele>
        <time>2021-03-23T12:38:55Z</time>
      </trkpt>
      <trkpt lat="46.72997" lon="0.95968">
        <ele>80</ele>
        <time>2021-03-23T12:39:06Z</time>
      </trkpt>
      <trkpt lat="46.72983" lon="0.96009">
        <ele>80</ele>
        <time>2021-03-23T12:39:11Z</time>
      </trkpt>
      <trkpt lat="46.72976" lon="0.96061">
        <ele>80</ele>
        <time>2021-03-23T12:39:18Z</time>
      </trkpt>
      <trkpt lat="46.72986" lon="0.9625">
        <ele>81</ele>
        <time>2021-03-23T12:39:41Z</time>
      </trkpt>
      <trkpt lat="46.72986" lon="0.96293">
        <ele>80</ele>
        <time>2021-03-23T12:39:46Z</time>
      </trkpt>
      <trkpt lat="46.72931" lon="0.96456">
        <ele>81</ele>
        <time>2021-03-23T12:40:08Z</time>
      </trkpt>
      <trkpt lat="46.72907" lon="0.96541">
        <ele>82</ele>
        <time>2021-03-23T12:40:20Z</time>
      </trkpt>
      <trkpt lat="46.72814" lon="0.96987">
        <ele>83</ele>
        <time>2021-03-23T12:41:17Z</time>
      </trkpt>
      <trkpt lat="46.72785" lon="0.97064">
        <ele>83</ele>
        <time>2021-03-23T12:41:27Z</time>
      </trkpt>
      <trkpt lat="46.72727" lon="0.97204">
        <ele>82</ele>
        <time>2021-03-23T12:41:47Z</time>
      </trkpt>
      <trkpt lat="46.72703" lon="0.97274">
        <ele>82</ele>
        <time>2021-03-23T12:41:57Z</time>
      </trkpt>
      <trkpt lat="46.72686" lon="0.97343">
        <ele>81</ele>
        <time>2021-03-23T12:42:06Z</time>
      </trkpt>
      <trkpt lat="46.72673" lon="0.97377">
        <ele>82</ele>
        <time>2021-03-23T12:42:10Z</time>
      </trkpt>
      <trkpt lat="46.72591" lon="0.9755">
        <ele>85</ele>
        <time>2021-03-23T12:42:36Z</time>
      </trkpt>
      <trkpt lat="46.72538" lon="0.97677">
        <ele>89</ele>
        <time>2021-03-23T12:42:54Z</time>
      </trkpt>
      <trkpt lat="46.7242" lon="0.97942">
        <ele>90</ele>
        <time>2021-03-23T12:43:33Z</time>
      </trkpt>
      <trkpt lat="46.72224" lon="0.9819">
        <ele>83</ele>
        <time>2021-03-23T12:44:19Z</time>
      </trkpt>
      <trkpt lat="46.72156" lon="0.98272">
        <ele>83</ele>
        <time>2021-03-23T12:44:35Z</time>
      </trkpt>
      <trkpt lat="46.72093" lon="0.98361">
        <ele>85</ele>
        <time>2021-03-23T12:44:50Z</time>
      </trkpt>
      <trkpt lat="46.72071" lon="0.98412">
        <ele>82</ele>
        <time>2021-03-23T12:44:58Z</time>
      </trkpt>
      <trkpt lat="46.72059" lon="0.98469">
        <ele>80</ele>
        <time>2021-03-23T12:45:05Z</time>
      </trkpt>
      <trkpt lat="46.72063" lon="0.98527">
        <ele>78</ele>
        <time>2021-03-23T12:45:12Z</time>
      </trkpt>
      <trkpt lat="46.72077" lon="0.98565">
        <ele>76</ele>
        <time>2021-03-23T12:45:17Z</time>
      </trkpt>
      <trkpt lat="46.7219" lon="0.98713">
        <ele>82</ele>
        <time>2021-03-23T12:45:44Z</time>
      </trkpt>
      <trkpt lat="46.72197" lon="0.98738">
        <ele>84</ele>
        <time>2021-03-23T12:45:48Z</time>
      </trkpt>
      <trkpt lat="46.72197" lon="0.98766">
        <ele>85</ele>
        <time>2021-03-23T12:45:51Z</time>
      </trkpt>
      <trkpt lat="46.72191" lon="0.98792">
        <ele>85</ele>
        <time>2021-03-23T12:45:54Z</time>
      </trkpt>
      <trkpt lat="46.72138" lon="0.9887">
        <ele>84</ele>
        <time>2021-03-23T12:46:08Z</time>
      </trkpt>
      <trkpt lat="46.72118" lon="0.98907">
        <ele>86</ele>
        <time>2021-03-23T12:46:13Z</time>
      </trkpt>
      <trkpt lat="46.72109" lon="0.98935">
        <ele>87</ele>
        <time>2021-03-23T12:46:17Z</time>
      </trkpt>
      <trkpt lat="46.72112" lon="0.98963">
        <ele>88</ele>
        <time>2021-03-23T12:46:21Z</time>
      </trkpt>
      <trkpt lat="46.72145" lon="0.99063">
        <ele>91</ele>
        <time>2021-03-23T12:46:34Z</time>
      </trkpt>
      <trkpt lat="46.72151" lon="0.99103">
        <ele>92</ele>
        <time>2021-03-23T12:46:39Z</time>
      </trkpt>
      <trkpt lat="46.72144" lon="0.99142">
        <ele>94</ele>
        <time>2021-03-23T12:46:44Z</time>
      </trkpt>
      <trkpt lat="46.72119" lon="0.99206">
        <ele>96</ele>
        <time>2021-03-23T12:46:53Z</time>
      </trkpt>
      <trkpt lat="46.72126" lon="0.99237">
        <ele>97</ele>
        <time>2021-03-23T12:46:57Z</time>
      </trkpt>
      <trkpt lat="46.72146" lon="0.99275">
        <ele>97</ele>
        <time>2021-03-23T12:47:03Z</time>
      </trkpt>
      <trkpt lat="46.7217" lon="0.99334">
        <ele>99</ele>
        <time>2021-03-23T12:47:11Z</time>
      </trkpt>
      <trkpt lat="46.7218" lon="0.99374">
        <ele>99</ele>
        <time>2021-03-23T12:47:16Z</time>
      </trkpt>
      <trkpt lat="46.7217" lon="0.99401">
        <ele>99</ele>
        <time>2021-03-23T12:47:20Z</time>
      </trkpt>
      <trkpt lat="46.72141" lon="0.99464">
        <ele>98</ele>
        <time>2021-03-23T12:47:29Z</time>
      </trkpt>
      <trkpt lat="46.72047" lon="0.99659">
        <ele>98</ele>
        <time>2021-03-23T12:47:59Z</time>
      </trkpt>
      <trkpt lat="46.7189" lon="1">
        <ele>103</ele>
        <time>2021-03-23T12:48:49Z</time>
      </trkpt>
      <trkpt lat="46.71852" lon="1.0005">
        <ele>103</ele>
        <time>2021-03-23T12:48:58Z</time>
      </trkpt>
      <trkpt lat="46.71751" lon="1.00161">
        <ele>105</ele>
        <time>2021-03-23T12:49:20Z</time>
      </trkpt>
      <trkpt lat="46.71683" lon="1.0024">
        <ele>107</ele>
        <time>2021-03-23T12:49:36Z</time>
      </trkpt>
      <trkpt lat="46.71678" lon="1.00288">
        <ele>106</ele>
        <time>2021-03-23T12:49:42Z</time>
      </trkpt>
      <trkpt lat="46.71673" lon="1.00379">
        <ele>106</ele>
        <time>2021-03-23T12:49:53Z</time>
      </trkpt>
      <trkpt lat="46.71666" lon="1.00419">
        <ele>106</ele>
        <time>2021-03-23T12:49:58Z</time>
      </trkpt>
      <trkpt lat="46.71664" lon="1.00464">
        <ele>106</ele>
        <time>2021-03-23T12:50:03Z</time>
      </trkpt>
      <trkpt lat="46.71672" lon="1.00505">
        <ele>106</ele>
        <time>2021-03-23T12:50:09Z</time>
      </trkpt>
      <trkpt lat="46.71704" lon="1.00607">
        <ele>103</ele>
        <time>2021-03-23T12:50:22Z</time>
      </trkpt>
      <trkpt lat="46.71716" lon="1.0066">
        <ele>103</ele>
        <time>2021-03-23T12:50:29Z</time>
      </trkpt>
      <trkpt lat="46.71718" lon="1.00708">
        <ele>103</ele>
        <time>2021-03-23T12:50:35Z</time>
      </trkpt>
      <trkpt lat="46.71713" lon="1.00752">
        <ele>103</ele>
        <time>2021-03-23T12:50:40Z</time>
      </trkpt>
      <trkpt lat="46.71652" lon="1.01146">
        <ele>105</ele>
        <time>2021-03-23T12:51:30Z</time>
      </trkpt>
      <trkpt lat="46.7164" lon="1.01213">
        <ele>104</ele>
        <time>2021-03-23T12:51:38Z</time>
      </trkpt>
      <trkpt lat="46.71625" lon="1.01278">
        <ele>103</ele>
        <time>2021-03-23T12:51:46Z</time>
      </trkpt>
      <trkpt lat="46.71608" lon="1.01331">
        <ele>102</ele>
        <time>2021-03-23T12:51:54Z</time>
      </trkpt>
      <trkpt lat="46.71584" lon="1.01365">
        <ele>102</ele>
        <time>2021-03-23T12:52:00Z</time>
      </trkpt>
      <trkpt lat="46.7153" lon="1.01413">
        <ele>103</ele>
        <time>2021-03-23T12:52:11Z</time>
      </trkpt>
      <trkpt lat="46.71486" lon="1.01456">
        <ele>103</ele>
        <time>2021-03-23T12:52:20Z</time>
      </trkpt>
      <trkpt lat="46.71481" lon="1.01477">
        <ele>103</ele>
        <time>2021-03-23T12:52:23Z</time>
      </trkpt>
      <trkpt lat="46.71478" lon="1.01524">
        <ele>103</ele>
        <time>2021-03-23T12:52:29Z</time>
      </trkpt>
      <trkpt lat="46.71471" lon="1.01551">
        <ele>102</ele>
        <time>2021-03-23T12:52:32Z</time>
      </trkpt>
      <trkpt lat="46.71463" lon="1.01575">
        <ele>102</ele>
        <time>2021-03-23T12:52:35Z</time>
      </trkpt>
      <trkpt lat="46.71439" lon="1.0163">
        <ele>101</ele>
        <time>2021-03-23T12:52:43Z</time>
      </trkpt>
      <trkpt lat="46.71425" lon="1.01638">
        <ele>101</ele>
        <time>2021-03-23T12:52:46Z</time>
      </trkpt>
      <trkpt lat="46.71386" lon="1.0165">
        <ele>102</ele>
        <time>2021-03-23T12:52:53Z</time>
      </trkpt>
      <trkpt lat="46.71364" lon="1.0166">
        <ele>102</ele>
        <time>2021-03-23T12:52:57Z</time>
      </trkpt>
      <trkpt lat="46.71315" lon="1.01699">
        <ele>104</ele>
        <time>2021-03-23T12:53:07Z</time>
      </trkpt>
      <trkpt lat="46.71265" lon="1.01743">
        <ele>104</ele>
        <time>2021-03-23T12:53:18Z</time>
      </trkpt>
      <trkpt lat="46.71238" lon="1.01754">
        <ele>104</ele>
        <time>2021-03-23T12:53:23Z</time>
      </trkpt>
      <trkpt lat="46.71172" lon="1.01761">
        <ele>105</ele>
        <time>2021-03-23T12:53:34Z</time>
      </trkpt>
      <trkpt lat="46.71009" lon="1.01805">
        <ele>105</ele>
        <time>2021-03-23T12:54:04Z</time>
      </trkpt>
      <trkpt lat="46.70979" lon="1.01811">
        <ele>105</ele>
        <time>2021-03-23T12:54:09Z</time>
      </trkpt>
      <trkpt lat="46.70958" lon="1.01824">
        <ele>105</ele>
        <time>2021-03-23T12:54:13Z</time>
      </trkpt>
      <trkpt lat="46.70943" lon="1.01846">
        <ele>105</ele>
        <time>2021-03-23T12:54:17Z</time>
      </trkpt>
      <trkpt lat="46.70908" lon="1.01947">
        <ele>104</ele>
        <time>2021-03-23T12:54:31Z</time>
      </trkpt>
      <trkpt lat="46.70783" lon="1.0218">
        <ele>103</ele>
        <time>2021-03-23T12:55:07Z</time>
      </trkpt>
      <trkpt lat="46.70763" lon="1.02227">
        <ele>103</ele>
        <time>2021-03-23T12:55:14Z</time>
      </trkpt>
      <trkpt lat="46.70745" lon="1.02288">
        <ele>102</ele>
        <time>2021-03-23T12:55:22Z</time>
      </trkpt>
      <trkpt lat="46.70615" lon="1.0264">
        <ele>98</ele>
        <time>2021-03-23T12:56:11Z</time>
      </trkpt>
      <trkpt lat="46.70564" lon="1.02789">
        <ele>102</ele>
        <time>2021-03-23T12:56:31Z</time>
      </trkpt>
      <trkpt lat="46.70385" lon="1.03272">
        <ele>103</ele>
        <time>2021-03-23T12:57:38Z</time>
      </trkpt>
      <trkpt lat="46.70328" lon="1.0344">
        <ele>105</ele>
        <time>2021-03-23T12:58:01Z</time>
      </trkpt>
      <trkpt lat="46.703" lon="1.0353">
        <ele>106</ele>
        <time>2021-03-23T12:58:13Z</time>
      </trkpt>
      <trkpt lat="46.70288" lon="1.03617">
        <ele>106</ele>
        <time>2021-03-23T12:58:24Z</time>
      </trkpt>
      <trkpt lat="46.70282" lon="1.037">
        <ele>107</ele>
        <time>2021-03-23T12:58:34Z</time>
      </trkpt>
      <trkpt lat="46.70271" lon="1.0395">
        <ele>110</ele>
        <time>2021-03-23T12:59:04Z</time>
      </trkpt>
      <trkpt lat="46.70272" lon="1.03997">
        <ele>111</ele>
        <time>2021-03-23T12:59:10Z</time>
      </trkpt>
      <trkpt lat="46.70283" lon="1.04047">
        <ele>111</ele>
        <time>2021-03-23T12:59:17Z</time>
      </trkpt>
      <trkpt lat="46.70308" lon="1.041">
        <ele>112</ele>
        <time>2021-03-23T12:59:24Z</time>
      </trkpt>
      <trkpt lat="46.70348" lon="1.0415">
        <ele>113</ele>
        <time>2021-03-23T12:59:34Z</time>
      </trkpt>
      <trkpt lat="46.70393" lon="1.04197">
        <ele>115</ele>
        <time>2021-03-23T12:59:44Z</time>
      </trkpt>
      <trkpt lat="46.70472" lon="1.04247">
        <ele>115</ele>
        <time>2021-03-23T12:59:59Z</time>
      </trkpt>
      <trkpt lat="46.70499" lon="1.04287">
        <ele>115</ele>
        <time>2021-03-23T13:00:06Z</time>
      </trkpt>
      <trkpt lat="46.70511" lon="1.04318">
        <ele>114</ele>
        <time>2021-03-23T13:00:10Z</time>
      </trkpt>
      <trkpt lat="46.70516" lon="1.04365">
        <ele>114</ele>
        <time>2021-03-23T13:00:16Z</time>
      </trkpt>
      <trkpt lat="46.70524" lon="1.04533">
        <ele>116</ele>
        <time>2021-03-23T13:00:36Z</time>
      </trkpt>
      <trkpt lat="46.70531" lon="1.04584">
        <ele>116</ele>
        <time>2021-03-23T13:00:43Z</time>
      </trkpt>
      <trkpt lat="46.70616" lon="1.04966">
        <ele>117</ele>
        <time>2021-03-23T13:01:32Z</time>
      </trkpt>
      <trkpt lat="46.70731" lon="1.05533">
        <ele>116</ele>
        <time>2021-03-23T13:02:44Z</time>
      </trkpt>
      <trkpt lat="46.70776" lon="1.05807">
        <ele>115</ele>
        <time>2021-03-23T13:03:18Z</time>
      </trkpt>
      <trkpt lat="46.70816" lon="1.06024">
        <ele>115</ele>
        <time>2021-03-23T13:03:46Z</time>
      </trkpt>
      <trkpt lat="46.70834" lon="1.06145">
        <ele>114</ele>
        <time>2021-03-23T13:04:01Z</time>
      </trkpt>
      <trkpt lat="46.70896" lon="1.0648">
        <ele>114</ele>
        <time>2021-03-23T13:04:43Z</time>
      </trkpt>
      <trkpt lat="46.70914" lon="1.06551">
        <ele>115</ele>
        <time>2021-03-23T13:04:52Z</time>
      </trkpt>
      <trkpt lat="46.70936" lon="1.06618">
        <ele>114</ele>
        <time>2021-03-23T13:05:02Z</time>
      </trkpt>
      <trkpt lat="46.70948" lon="1.06691">
        <ele>112</ele>
        <time>2021-03-23T13:05:11Z</time>
      </trkpt>
      <trkpt lat="46.71045" lon="1.07421">
        <ele>108</ele>
        <time>2021-03-23T13:06:41Z</time>
      </trkpt>
      <trkpt lat="46.7108" lon="1.07656">
        <ele>101</ele>
        <time>2021-03-23T13:07:11Z</time>
      </trkpt>
      <trkpt lat="46.71055" lon="1.07765">
        <ele>99</ele>
        <time>2021-03-23T13:07:25Z</time>
      </trkpt>
      <trkpt lat="46.71009" lon="1.07928">
        <ele>97</ele>
        <time>2021-03-23T13:07:46Z</time>
      </trkpt>
      <trkpt lat="46.71004" lon="1.07977">
        <ele>98</ele>
        <time>2021-03-23T13:07:52Z</time>
      </trkpt>
      <trkpt lat="46.7101" lon="1.08231">
        <ele>102</ele>
        <time>2021-03-23T13:08:23Z</time>
      </trkpt>
      <trkpt lat="46.71001" lon="1.08384">
        <ele>106</ele>
        <time>2021-03-23T13:08:42Z</time>
      </trkpt>
      <trkpt lat="46.70986" lon="1.08535">
        <ele>109</ele>
        <time>2021-03-23T13:09:01Z</time>
      </trkpt>
      <trkpt lat="46.7099" lon="1.08563">
        <ele>109</ele>
        <time>2021-03-23T13:09:04Z</time>
      </trkpt>
      <trkpt lat="46.71001" lon="1.08591">
        <ele>109</ele>
        <time>2021-03-23T13:09:08Z</time>
      </trkpt>
      <trkpt lat="46.71009" lon="1.08636">
        <ele>109</ele>
        <time>2021-03-23T13:09:14Z</time>
      </trkpt>
      <trkpt lat="46.71014" lon="1.08684">
        <ele>109</ele>
        <time>2021-03-23T13:09:20Z</time>
      </trkpt>
      <trkpt lat="46.7102" lon="1.08914">
        <ele>107</ele>
        <time>2021-03-23T13:09:48Z</time>
      </trkpt>
      <trkpt lat="46.7102" lon="1.09002">
        <ele>106</ele>
        <time>2021-03-23T13:09:59Z</time>
      </trkpt>
      <trkpt lat="46.71004" lon="1.09154">
        <ele>105</ele>
        <time>2021-03-23T13:10:17Z</time>
      </trkpt>
      <trkpt lat="46.7098" lon="1.09332">
        <ele>105</ele>
        <time>2021-03-23T13:10:39Z</time>
      </trkpt>
      <trkpt lat="46.70966" lon="1.09414">
        <ele>103</ele>
        <time>2021-03-23T13:10:50Z</time>
      </trkpt>
      <trkpt lat="46.70943" lon="1.0949">
        <ele>102</ele>
        <time>2021-03-23T13:11:00Z</time>
      </trkpt>
      <trkpt lat="46.70913" lon="1.09573">
        <ele>102</ele>
        <time>2021-03-23T13:11:11Z</time>
      </trkpt>
      <trkpt lat="46.70855" lon="1.09748">
        <ele>104</ele>
        <time>2021-03-23T13:11:35Z</time>
      </trkpt>
      <trkpt lat="46.70788" lon="1.09912">
        <ele>102</ele>
        <time>2021-03-23T13:11:58Z</time>
      </trkpt>
      <trkpt lat="46.70707" lon="1.10081">
        <ele>96</ele>
        <time>2021-03-23T13:12:23Z</time>
      </trkpt>
      <trkpt lat="46.70587" lon="1.10341">
        <ele>89</ele>
        <time>2021-03-23T13:13:02Z</time>
      </trkpt>
      <trkpt lat="46.7053" lon="1.105">
        <ele>90</ele>
        <time>2021-03-23T13:13:24Z</time>
      </trkpt>
      <trkpt lat="46.70501" lon="1.10591">
        <ele>89</ele>
        <time>2021-03-23T13:13:36Z</time>
      </trkpt>
      <trkpt lat="46.70486" lon="1.10647">
        <ele>89</ele>
        <time>2021-03-23T13:13:43Z</time>
      </trkpt>
      <trkpt lat="46.70492" lon="1.10717">
        <ele>90</ele>
        <time>2021-03-23T13:13:52Z</time>
      </trkpt>
      <trkpt lat="46.70507" lon="1.10791">
        <ele>90</ele>
        <time>2021-03-23T13:14:01Z</time>
      </trkpt>
      <trkpt lat="46.70533" lon="1.10864">
        <ele>91</ele>
        <time>2021-03-23T13:14:11Z</time>
      </trkpt>
      <trkpt lat="46.70544" lon="1.10917">
        <ele>91</ele>
        <time>2021-03-23T13:14:18Z</time>
      </trkpt>
      <trkpt lat="46.70549" lon="1.11024">
        <ele>91</ele>
        <time>2021-03-23T13:14:31Z</time>
      </trkpt>
      <trkpt lat="46.70511" lon="1.11153">
        <ele>92</ele>
        <time>2021-03-23T13:14:48Z</time>
      </trkpt>
      <trkpt lat="46.70506" lon="1.11179">
        <ele>92</ele>
        <time>2021-03-23T13:14:51Z</time>
      </trkpt>
      <trkpt lat="46.70488" lon="1.11182">
        <ele>92</ele>
        <time>2021-03-23T13:14:55Z</time>
      </trkpt>
      <trkpt lat="46.70468" lon="1.11231">
        <ele>92</ele>
        <time>2021-03-23T13:15:02Z</time>
      </trkpt>
      <trkpt lat="46.70417" lon="1.11378">
        <ele>92</ele>
        <time>2021-03-23T13:15:22Z</time>
      </trkpt>
      <trkpt lat="46.70404" lon="1.11455">
        <ele>93</ele>
        <time>2021-03-23T13:15:31Z</time>
      </trkpt>
      <trkpt lat="46.70397" lon="1.11554">
        <ele>94</ele>
        <time>2021-03-23T13:15:44Z</time>
      </trkpt>
      <trkpt lat="46.70384" lon="1.11652">
        <ele>93</ele>
        <time>2021-03-23T13:15:56Z</time>
      </trkpt>
      <trkpt lat="46.70356" lon="1.1195">
        <ele>93</ele>
        <time>2021-03-23T13:16:32Z</time>
      </trkpt>
      <trkpt lat="46.7035" lon="1.12051">
        <ele>93</ele>
        <time>2021-03-23T13:16:45Z</time>
      </trkpt>
      <trkpt lat="46.7035" lon="1.12263">
        <ele>93</ele>
        <time>2021-03-23T13:17:11Z</time>
      </trkpt>
      <trkpt lat="46.70364" lon="1.12892">
        <ele>93</ele>
        <time>2021-03-23T13:18:28Z</time>
      </trkpt>
      <trkpt lat="46.70373" lon="1.12998">
        <ele>92</ele>
        <time>2021-03-23T13:18:41Z</time>
      </trkpt>
      <trkpt lat="46.70385" lon="1.13047">
        <ele>93</ele>
        <time>2021-03-23T13:18:47Z</time>
      </trkpt>
      <trkpt lat="46.70696" lon="1.13464">
        <ele>97</ele>
        <time>2021-03-23T13:20:02Z</time>
      </trkpt>
      <trkpt lat="46.70743" lon="1.13522">
        <ele>98</ele>
        <time>2021-03-23T13:20:13Z</time>
      </trkpt>
      <trkpt lat="46.7077" lon="1.13564">
        <ele>99</ele>
        <time>2021-03-23T13:20:20Z</time>
      </trkpt>
      <trkpt lat="46.70846" lon="1.13745">
        <ele>100</ele>
        <time>2021-03-23T13:20:46Z</time>
      </trkpt>
      <trkpt lat="46.7096" lon="1.14033">
        <ele>96</ele>
        <time>2021-03-23T13:21:27Z</time>
      </trkpt>
      <trkpt lat="46.71108" lon="1.14392">
        <ele>93</ele>
        <time>2021-03-23T13:22:18Z</time>
      </trkpt>
      <trkpt lat="46.71129" lon="1.14425">
        <ele>92</ele>
        <time>2021-03-23T13:22:23Z</time>
      </trkpt>
      <trkpt lat="46.71208" lon="1.14523">
        <ele>92</ele>
        <time>2021-03-23T13:22:42Z</time>
      </trkpt>
      <trkpt lat="46.71242" lon="1.14552">
        <ele>92</ele>
        <time>2021-03-23T13:22:49Z</time>
      </trkpt>
      <trkpt lat="46.71277" lon="1.14574">
        <ele>92</ele>
        <time>2021-03-23T13:22:55Z</time>
      </trkpt>
      <trkpt lat="46.71235" lon="1.1467">
        <ele>94</ele>
        <time>2021-03-23T13:23:09Z</time>
      </trkpt>
      <trkpt lat="46.712" lon="1.14761">
        <ele>93</ele>
        <time>2021-03-23T13:23:22Z</time>
      </trkpt>
      <trkpt lat="46.71182" lon="1.1482">
        <ele>93</ele>
        <time>2021-03-23T13:23:30Z</time>
      </trkpt>
      <trkpt lat="46.71129" lon="1.1545">
        <ele>97</ele>
        <time>2021-03-23T13:24:47Z</time>
      </trkpt>
      <trkpt lat="46.71163" lon="1.15629">
        <ele>98</ele>
        <time>2021-03-23T13:25:10Z</time>
      </trkpt>
      <trkpt lat="46.71265" lon="1.15887">
        <ele>103</ele>
        <time>2021-03-23T13:25:46Z</time>
      </trkpt>
      <trkpt lat="46.71287" lon="1.15924">
        <ele>104</ele>
        <time>2021-03-23T13:25:52Z</time>
      </trkpt>
      <trkpt lat="46.71521" lon="1.16131">
        <ele>112</ele>
        <time>2021-03-23T13:26:41Z</time>
      </trkpt>
      <trkpt lat="46.71559" lon="1.16174">
        <ele>112</ele>
        <time>2021-03-23T13:26:50Z</time>
      </trkpt>
      <trkpt lat="46.71652" lon="1.16306">
        <ele>114</ele>
        <time>2021-03-23T13:27:13Z</time>
      </trkpt>
      <trkpt lat="46.71676" lon="1.16326">
        <ele>114</ele>
        <time>2021-03-23T13:27:18Z</time>
      </trkpt>
      <trkpt lat="46.7181" lon="1.16383">
        <ele>112</ele>
        <time>2021-03-23T13:27:42Z</time>
      </trkpt>
      <trkpt lat="46.71832" lon="1.16401">
        <ele>111</ele>
        <time>2021-03-23T13:27:47Z</time>
      </trkpt>
      <trkpt lat="46.71854" lon="1.1643">
        <ele>111</ele>
        <time>2021-03-23T13:27:52Z</time>
      </trkpt>
      <trkpt lat="46.71877" lon="1.1647">
        <ele>111</ele>
        <time>2021-03-23T13:27:58Z</time>
      </trkpt>
      <trkpt lat="46.71898" lon="1.16521">
        <ele>112</ele>
        <time>2021-03-23T13:28:06Z</time>
      </trkpt>
      <trkpt lat="46.7191" lon="1.1657">
        <ele>114</ele>
        <time>2021-03-23T13:28:12Z</time>
      </trkpt>
      <trkpt lat="46.71972" lon="1.16995">
        <ele>119</ele>
        <time>2021-03-23T13:29:05Z</time>
      </trkpt>
      <trkpt lat="46.71972" lon="1.17033">
        <ele>119</ele>
        <time>2021-03-23T13:29:10Z</time>
      </trkpt>
      <trkpt lat="46.71938" lon="1.17214">
        <ele>120</ele>
        <time>2021-03-23T13:29:33Z</time>
      </trkpt>
      <trkpt lat="46.71942" lon="1.17235">
        <ele>121</ele>
        <time>2021-03-23T13:29:35Z</time>
      </trkpt>
      <trkpt lat="46.7198" lon="1.17359">
        <ele>118</ele>
        <time>2021-03-23T13:29:52Z</time>
      </trkpt>
      <trkpt lat="46.71997" lon="1.17372">
        <ele>117</ele>
        <time>2021-03-23T13:29:55Z</time>
      </trkpt>
      <trkpt lat="46.72032" lon="1.17381">
        <ele>116</ele>
        <time>2021-03-23T13:30:02Z</time>
      </trkpt>
      <trkpt lat="46.72065" lon="1.17385">
        <ele>116</ele>
        <time>2021-03-23T13:30:07Z</time>
      </trkpt>
      <trkpt lat="46.72095" lon="1.1738">
        <ele>115</ele>
        <time>2021-03-23T13:30:13Z</time>
      </trkpt>
      <trkpt lat="46.72128" lon="1.17366">
        <ele>113</ele>
        <time>2021-03-23T13:30:19Z</time>
      </trkpt>
      <trkpt lat="46.72211" lon="1.17356">
        <ele>112</ele>
        <time>2021-03-23T13:30:34Z</time>
      </trkpt>
      <trkpt lat="46.72239" lon="1.17357">
        <ele>112</ele>
        <time>2021-03-23T13:30:39Z</time>
      </trkpt>
      <trkpt lat="46.72269" lon="1.17376">
        <ele>112</ele>
        <time>2021-03-23T13:30:45Z</time>
      </trkpt>
      <trkpt lat="46.723" lon="1.17403">
        <ele>114</ele>
        <time>2021-03-23T13:30:51Z</time>
      </trkpt>
      <trkpt lat="46.72336" lon="1.17458">
        <ele>113</ele>
        <time>2021-03-23T13:31:00Z</time>
      </trkpt>
      <trkpt lat="46.72361" lon="1.17489">
        <ele>113</ele>
        <time>2021-03-23T13:31:06Z</time>
      </trkpt>
      <trkpt lat="46.72392" lon="1.17514">
        <ele>112</ele>
        <time>2021-03-23T13:31:12Z</time>
      </trkpt>
      <trkpt lat="46.72426" lon="1.17531">
        <ele>111</ele>
        <time>2021-03-23T13:31:19Z</time>
      </trkpt>
      <trkpt lat="46.72468" lon="1.17548">
        <ele>107</ele>
        <time>2021-03-23T13:31:27Z</time>
      </trkpt>
      <trkpt lat="46.72491" lon="1.17564">
        <ele>106</ele>
        <time>2021-03-23T13:31:31Z</time>
      </trkpt>
      <trkpt lat="46.7255" lon="1.17691">
        <ele>102</ele>
        <time>2021-03-23T13:31:50Z</time>
      </trkpt>
      <trkpt lat="46.72575" lon="1.17756">
        <ele>101</ele>
        <time>2021-03-23T13:31:59Z</time>
      </trkpt>
      <trkpt lat="46.72594" lon="1.17831">
        <ele>103</ele>
        <time>2021-03-23T13:32:09Z</time>
      </trkpt>
      <trkpt lat="46.72621" lon="1.17896">
        <ele>103</ele>
        <time>2021-03-23T13:32:18Z</time>
      </trkpt>
      <trkpt lat="46.7267" lon="1.18028">
        <ele>104</ele>
        <time>2021-03-23T13:32:36Z</time>
      </trkpt>
      <trkpt lat="46.7274" lon="1.18113">
        <ele>99</ele>
        <time>2021-03-23T13:32:52Z</time>
      </trkpt>
      <trkpt lat="46.7277" lon="1.18159">
        <ele>98</ele>
        <time>2021-03-23T13:33:00Z</time>
      </trkpt>
      <trkpt lat="46.72806" lon="1.18184">
        <ele>98</ele>
        <time>2021-03-23T13:33:07Z</time>
      </trkpt>
      <trkpt lat="46.72835" lon="1.1822">
        <ele>98</ele>
        <time>2021-03-23T13:33:14Z</time>
      </trkpt>
      <trkpt lat="46.729" lon="1.18313">
        <ele>98</ele>
        <time>2021-03-23T13:33:30Z</time>
      </trkpt>
      <trkpt lat="46.72971" lon="1.18421">
        <ele>97</ele>
        <time>2021-03-23T13:33:49Z</time>
      </trkpt>
      <trkpt lat="46.72989" lon="1.18465">
        <ele>98</ele>
        <time>2021-03-23T13:33:55Z</time>
      </trkpt>
      <trkpt lat="46.73007" lon="1.18525">
        <ele>99</ele>
        <time>2021-03-23T13:34:03Z</time>
      </trkpt>
      <trkpt lat="46.73038" lon="1.18644">
        <ele>99</ele>
        <time>2021-03-23T13:34:18Z</time>
      </trkpt>
      <trkpt lat="46.73177" lon="1.1886">
        <ele>96</ele>
        <time>2021-03-23T13:34:54Z</time>
      </trkpt>
      <trkpt lat="46.73258" lon="1.18979">
        <ele>95</ele>
        <time>2021-03-23T13:35:15Z</time>
      </trkpt>
      <trkpt lat="46.7329" lon="1.1903">
        <ele>95</ele>
        <time>2021-03-23T13:35:23Z</time>
      </trkpt>
      <trkpt lat="46.73299" lon="1.19101">
        <ele>96</ele>
        <time>2021-03-23T13:35:32Z</time>
      </trkpt>
      <trkpt lat="46.73502" lon="1.19656">
        <ele>98</ele>
        <time>2021-03-23T13:36:49Z</time>
      </trkpt>
      <trkpt lat="46.73678" lon="1.19648">
        <ele>97</ele>
        <time>2021-03-23T13:37:20Z</time>
      </trkpt>
      <trkpt lat="46.74099" lon="1.19622">
        <ele>97</ele>
        <time>2021-03-23T13:38:35Z</time>
      </trkpt>
      <trkpt lat="46.74173" lon="1.19611">
        <ele>96</ele>
        <time>2021-03-23T13:38:48Z</time>
      </trkpt>
      <trkpt lat="46.7421" lon="1.19601">
        <ele>95</ele>
        <time>2021-03-23T13:38:55Z</time>
      </trkpt>
      <trkpt lat="46.74249" lon="1.19587">
        <ele>95</ele>
        <time>2021-03-23T13:39:02Z</time>
      </trkpt>
      <trkpt lat="46.74366" lon="1.19519">
        <ele>95</ele>
        <time>2021-03-23T13:39:25Z</time>
      </trkpt>
      <trkpt lat="46.74553" lon="1.19415">
        <ele>98</ele>
        <time>2021-03-23T13:40:00Z</time>
      </trkpt>
      <trkpt lat="46.74588" lon="1.19393">
        <ele>97</ele>
        <time>2021-03-23T13:40:07Z</time>
      </trkpt>
      <trkpt lat="46.7471" lon="1.19329">
        <ele>97</ele>
        <time>2021-03-23T13:40:30Z</time>
      </trkpt>
      <trkpt lat="46.74836" lon="1.19255">
        <ele>96</ele>
        <time>2021-03-23T13:40:54Z</time>
      </trkpt>
      <trkpt lat="46.75013" lon="1.1916">
        <ele>93</ele>
        <time>2021-03-23T13:41:28Z</time>
      </trkpt>
      <trkpt lat="46.75097" lon="1.19111">
        <ele>92</ele>
        <time>2021-03-23T13:41:44Z</time>
      </trkpt>
      <trkpt lat="46.75315" lon="1.18991">
        <ele>92</ele>
        <time>2021-03-23T13:42:25Z</time>
      </trkpt>
      <trkpt lat="46.75609" lon="1.18823">
        <ele>92</ele>
        <time>2021-03-23T13:43:22Z</time>
      </trkpt>
      <trkpt lat="46.75648" lon="1.18803">
        <ele>91</ele>
        <time>2021-03-23T13:43:29Z</time>
      </trkpt>
      <trkpt lat="46.75615" lon="1.18761">
        <ele>93</ele>
        <time>2021-03-23T13:43:37Z</time>
      </trkpt>
      <trkpt lat="46.7558" lon="1.1871">
        <ele>93</ele>
        <time>2021-03-23T13:43:45Z</time>
      </trkpt>
      <trkpt lat="46.75567" lon="1.18658">
        <ele>92</ele>
        <time>2021-03-23T13:43:52Z</time>
      </trkpt>
      <trkpt lat="46.75529" lon="1.18636">
        <ele>93</ele>
        <time>2021-03-23T13:43:59Z</time>
      </trkpt>
      <trkpt lat="46.75517" lon="1.18632">
        <ele>94</ele>
        <time>2021-03-23T13:44:02Z</time>
      </trkpt>
      <trkpt lat="46.755" lon="1.18642">
        <ele>94</ele>
        <time>2021-03-23T13:44:05Z</time>
      </trkpt>
      <trkpt lat="46.75484" lon="1.18643">
        <ele>94</ele>
        <time>2021-03-23T13:44:08Z</time>
      </trkpt>
      <trkpt lat="46.75472" lon="1.18633">
        <ele>94</ele>
        <time>2021-03-23T13:44:10Z</time>
      </trkpt>
      <trkpt lat="46.75456" lon="1.18593">
        <ele>94</ele>
        <time>2021-03-23T13:44:16Z</time>
      </trkpt>
      <trkpt lat="46.75416" lon="1.18519">
        <ele>92</ele>
        <time>2021-03-23T13:44:27Z</time>
      </trkpt>
      <trkpt lat="46.75426" lon="1.18452">
        <ele>92</ele>
        <time>2021-03-23T13:44:36Z</time>
      </trkpt>
      <trkpt lat="46.75434" lon="1.18425">
        <ele>91</ele>
        <time>2021-03-23T13:44:39Z</time>
      </trkpt>
      <trkpt lat="46.75505" lon="1.18334">
        <ele>92</ele>
        <time>2021-03-23T13:44:56Z</time>
      </trkpt>
      <trkpt lat="46.75543" lon="1.18288">
        <ele>92</ele>
        <time>2021-03-23T13:45:05Z</time>
      </trkpt>
      <trkpt lat="46.75621" lon="1.18216">
        <ele>92</ele>
        <time>2021-03-23T13:45:21Z</time>
      </trkpt>
      <trkpt lat="46.75659" lon="1.1817">
        <ele>94</ele>
        <time>2021-03-23T13:45:30Z</time>
      </trkpt>
      <trkpt lat="46.75688" lon="1.18121">
        <ele>92</ele>
        <time>2021-03-23T13:45:38Z</time>
      </trkpt>
      <trkpt lat="46.75705" lon="1.18065">
        <ele>91</ele>
        <time>2021-03-23T13:45:45Z</time>
      </trkpt>
      <trkpt lat="46.75736" lon="1.17879">
        <ele>91</ele>
        <time>2021-03-23T13:46:09Z</time>
      </trkpt>
      <trkpt lat="46.75759" lon="1.17774">
        <ele>90</ele>
        <time>2021-03-23T13:46:22Z</time>
      </trkpt>
      <trkpt lat="46.75795" lon="1.17672">
        <ele>90</ele>
        <time>2021-03-23T13:46:36Z</time>
      </trkpt>
      <trkpt lat="46.75838" lon="1.17576">
        <ele>89</ele>
        <time>2021-03-23T13:46:50Z</time>
      </trkpt>
      <trkpt lat="46.75866" lon="1.17495">
        <ele>88</ele>
        <time>2021-03-23T13:47:01Z</time>
      </trkpt>
      <trkpt lat="46.75899" lon="1.17381">
        <ele>88</ele>
        <time>2021-03-23T13:47:16Z</time>
      </trkpt>
      <trkpt lat="46.75919" lon="1.17287">
        <ele>86</ele>
        <time>2021-03-23T13:47:28Z</time>
      </trkpt>
      <trkpt lat="46.75929" lon="1.17228">
        <ele>87</ele>
        <time>2021-03-23T13:47:36Z</time>
      </trkpt>
      <trkpt lat="46.75935" lon="1.17076">
        <ele>89</ele>
        <time>2021-03-23T13:47:54Z</time>
      </trkpt>
      <trkpt lat="46.75941" lon="1.17042">
        <ele>89</ele>
        <time>2021-03-23T13:47:59Z</time>
      </trkpt>
      <trkpt lat="46.75957" lon="1.16998">
        <ele>90</ele>
        <time>2021-03-23T13:48:05Z</time>
      </trkpt>
      <trkpt lat="46.76067" lon="1.16783">
        <ele>89</ele>
        <time>2021-03-23T13:48:37Z</time>
      </trkpt>
      <trkpt lat="46.76063" lon="1.16715">
        <ele>89</ele>
        <time>2021-03-23T13:48:46Z</time>
      </trkpt>
      <trkpt lat="46.76036" lon="1.16553">
        <ele>88</ele>
        <time>2021-03-23T13:49:06Z</time>
      </trkpt>
      <trkpt lat="46.76031" lon="1.16487">
        <ele>87</ele>
        <time>2021-03-23T13:49:14Z</time>
      </trkpt>
      <trkpt lat="46.76034" lon="1.16441">
        <ele>88</ele>
        <time>2021-03-23T13:49:20Z</time>
      </trkpt>
      <trkpt lat="46.76127" lon="1.16258">
        <ele>89</ele>
        <time>2021-03-23T13:49:48Z</time>
      </trkpt>
      <trkpt lat="46.7613" lon="1.16228">
        <ele>89</ele>
        <time>2021-03-23T13:49:51Z</time>
      </trkpt>
      <trkpt lat="46.76122" lon="1.16187">
        <ele>89</ele>
        <time>2021-03-23T13:49:56Z</time>
      </trkpt>
      <trkpt lat="46.76108" lon="1.16151">
        <ele>90</ele>
        <time>2021-03-23T13:50:01Z</time>
      </trkpt>
      <trkpt lat="46.76113" lon="1.16102">
        <ele>91</ele>
        <time>2021-03-23T13:50:07Z</time>
      </trkpt>
      <trkpt lat="46.7616" lon="1.16001">
        <ele>92</ele>
        <time>2021-03-23T13:50:22Z</time>
      </trkpt>
      <trkpt lat="46.76202" lon="1.15926">
        <ele>91</ele>
        <time>2021-03-23T13:50:34Z</time>
      </trkpt>
      <trkpt lat="46.76229" lon="1.15847">
        <ele>91</ele>
        <time>2021-03-23T13:50:45Z</time>
      </trkpt>
      <trkpt lat="46.76267" lon="1.15691">
        <ele>90</ele>
        <time>2021-03-23T13:51:05Z</time>
      </trkpt>
      <trkpt lat="46.76293" lon="1.15603">
        <ele>90</ele>
        <time>2021-03-23T13:51:17Z</time>
      </trkpt>
      <trkpt lat="46.76296" lon="1.15568">
        <ele>90</ele>
        <time>2021-03-23T13:51:21Z</time>
      </trkpt>
      <trkpt lat="46.76287" lon="1.15519">
        <ele>89</ele>
        <time>2021-03-23T13:51:27Z</time>
      </trkpt>
      <trkpt lat="46.76269" lon="1.15453">
        <ele>89</ele>
        <time>2021-03-23T13:51:36Z</time>
      </trkpt>
      <trkpt lat="46.76209" lon="1.15275">
        <ele>91</ele>
        <time>2021-03-23T13:52:00Z</time>
      </trkpt>
      <trkpt lat="46.76209" lon="1.15214">
        <ele>89</ele>
        <time>2021-03-23T13:52:08Z</time>
      </trkpt>
      <trkpt lat="46.76246" lon="1.14957">
        <ele>88</ele>
        <time>2021-03-23T13:52:40Z</time>
      </trkpt>
      <trkpt lat="46.76267" lon="1.14881">
        <ele>89</ele>
        <time>2021-03-23T13:52:50Z</time>
      </trkpt>
      <trkpt lat="46.76289" lon="1.14824">
        <ele>89</ele>
        <time>2021-03-23T13:52:58Z</time>
      </trkpt>
      <trkpt lat="46.76322" lon="1.14771">
        <ele>89</ele>
        <time>2021-03-23T13:53:06Z</time>
      </trkpt>
      <trkpt lat="46.76347" lon="1.1471">
        <ele>89</ele>
        <time>2021-03-23T13:53:15Z</time>
      </trkpt>
      <trkpt lat="46.76366" lon="1.14633">
        <ele>90</ele>
        <time>2021-03-23T13:53:25Z</time>
      </trkpt>
      <trkpt lat="46.76449" lon="1.13853">
        <ele>89</ele>
        <time>2021-03-23T13:55:01Z</time>
      </trkpt>
      <trkpt lat="46.76462" lon="1.13753">
        <ele>90</ele>
        <time>2021-03-23T13:55:14Z</time>
      </trkpt>
      <trkpt lat="46.76501" lon="1.13624">
        <ele>93</ele>
        <time>2021-03-23T13:55:31Z</time>
      </trkpt>
      <trkpt lat="46.76565" lon="1.13454">
        <ele>94</ele>
        <time>2021-03-23T13:55:54Z</time>
      </trkpt>
      <trkpt lat="46.76588" lon="1.13372">
        <ele>93</ele>
        <time>2021-03-23T13:56:05Z</time>
      </trkpt>
      <trkpt lat="46.76597" lon="1.1329">
        <ele>90</ele>
        <time>2021-03-23T13:56:15Z</time>
      </trkpt>
      <trkpt lat="46.76597" lon="1.13033">
        <ele>94</ele>
        <time>2021-03-23T13:56:47Z</time>
      </trkpt>
      <trkpt lat="46.76594" lon="1.12874">
        <ele>96</ele>
        <time>2021-03-23T13:57:06Z</time>
      </trkpt>
      <trkpt lat="46.7659" lon="1.12193">
        <ele>93</ele>
        <time>2021-03-23T13:58:29Z</time>
      </trkpt>
      <trkpt lat="46.76593" lon="1.12114">
        <ele>94</ele>
        <time>2021-03-23T13:58:39Z</time>
      </trkpt>
      <trkpt lat="46.76729" lon="1.11586">
        <ele>89</ele>
        <time>2021-03-23T13:59:47Z</time>
      </trkpt>
      <trkpt lat="46.76812" lon="1.11461">
        <ele>87</ele>
        <time>2021-03-23T14:00:09Z</time>
      </trkpt>
      <trkpt lat="46.76899" lon="1.11322">
        <ele>88</ele>
        <time>2021-03-23T14:00:32Z</time>
      </trkpt>
      <trkpt lat="46.76991" lon="1.11188">
        <ele>92</ele>
        <time>2021-03-23T14:00:55Z</time>
      </trkpt>
      <trkpt lat="46.77267" lon="1.10803">
        <ele>94</ele>
        <time>2021-03-23T14:02:03Z</time>
      </trkpt>
      <trkpt lat="46.77455" lon="1.10546">
        <ele>92</ele>
        <time>2021-03-23T14:02:48Z</time>
      </trkpt>
      <trkpt lat="46.77508" lon="1.10477">
        <ele>90</ele>
        <time>2021-03-23T14:03:01Z</time>
      </trkpt>
      <trkpt lat="46.77548" lon="1.10461">
        <ele>90</ele>
        <time>2021-03-23T14:03:08Z</time>
      </trkpt>
      <trkpt lat="46.77865" lon="1.10467">
        <ele>90</ele>
        <time>2021-03-23T14:04:05Z</time>
      </trkpt>
      <trkpt lat="46.77902" lon="1.10447">
        <ele>90</ele>
        <time>2021-03-23T14:04:12Z</time>
      </trkpt>
      <trkpt lat="46.77936" lon="1.10386">
        <ele>89</ele>
        <time>2021-03-23T14:04:21Z</time>
      </trkpt>
      <trkpt lat="46.78025" lon="1.10214">
        <ele>88</ele>
        <time>2021-03-23T14:04:48Z</time>
      </trkpt>
      <trkpt lat="46.78197" lon="1.09871">
        <ele>88</ele>
        <time>2021-03-23T14:05:39Z</time>
      </trkpt>
      <trkpt lat="46.78571" lon="1.09136">
        <ele>83</ele>
        <time>2021-03-23T14:07:31Z</time>
      </trkpt>
      <trkpt lat="46.78721" lon="1.0901">
        <ele>83</ele>
        <time>2021-03-23T14:08:02Z</time>
      </trkpt>
      <trkpt lat="46.78948" lon="1.08806">
        <ele>84</ele>
        <time>2021-03-23T14:08:49Z</time>
      </trkpt>
      <trkpt lat="46.79015" lon="1.08727">
        <ele>84</ele>
        <time>2021-03-23T14:09:05Z</time>
      </trkpt>
      <trkpt lat="46.79062" lon="1.08676">
        <ele>86</ele>
        <time>2021-03-23T14:09:15Z</time>
      </trkpt>
      <trkpt lat="46.79226" lon="1.08624">
        <ele>80</ele>
        <time>2021-03-23T14:09:45Z</time>
      </trkpt>
      <trkpt lat="46.79298" lon="1.08519">
        <ele>80</ele>
        <time>2021-03-23T14:10:03Z</time>
      </trkpt>
      <trkpt lat="46.79371" lon="1.08434">
        <ele>80</ele>
        <time>2021-03-23T14:10:20Z</time>
      </trkpt>
      <trkpt lat="46.79583" lon="1.08201">
        <ele>82</ele>
        <time>2021-03-23T14:11:07Z</time>
      </trkpt>
      <trkpt lat="46.79623" lon="1.08125">
        <ele>82</ele>
        <time>2021-03-23T14:11:18Z</time>
      </trkpt>
      <trkpt lat="46.79787" lon="1.07706">
        <ele>80</ele>
        <time>2021-03-23T14:12:17Z</time>
      </trkpt>
      <trkpt lat="46.79827" lon="1.0749">
        <ele>82</ele>
        <time>2021-03-23T14:12:45Z</time>
      </trkpt>
      <trkpt lat="46.7986" lon="1.0727">
        <ele>81</ele>
        <time>2021-03-23T14:13:12Z</time>
      </trkpt>
      <trkpt lat="46.79871" lon="1.07058">
        <ele>80</ele>
        <time>2021-03-23T14:13:38Z</time>
      </trkpt>
      <trkpt lat="46.79874" lon="1.06835">
        <ele>79</ele>
        <time>2021-03-23T14:14:05Z</time>
      </trkpt>
      <trkpt lat="46.79855" lon="1.06246">
        <ele>78</ele>
        <time>2021-03-23T14:15:17Z</time>
      </trkpt>
      <trkpt lat="46.79819" lon="1.06073">
        <ele>80</ele>
        <time>2021-03-23T14:15:39Z</time>
      </trkpt>
      <trkpt lat="46.79812" lon="1.06009">
        <ele>81</ele>
        <time>2021-03-23T14:15:47Z</time>
      </trkpt>
      <trkpt lat="46.79853" lon="1.05801">
        <ele>80</ele>
        <time>2021-03-23T14:16:13Z</time>
      </trkpt>
      <trkpt lat="46.79894" lon="1.0563">
        <ele>79</ele>
        <time>2021-03-23T14:16:35Z</time>
      </trkpt>
      <trkpt lat="46.79974" lon="1.05487">
        <ele>78</ele>
        <time>2021-03-23T14:16:58Z</time>
      </trkpt>
      <trkpt lat="46.80003" lon="1.05418">
        <ele>78</ele>
        <time>2021-03-23T14:17:08Z</time>
      </trkpt>
      <trkpt lat="46.80036" lon="1.05272">
        <ele>79</ele>
        <time>2021-03-23T14:17:26Z</time>
      </trkpt>
      <trkpt lat="46.80108" lon="1.05086">
        <ele>82</ele>
        <time>2021-03-23T14:17:52Z</time>
      </trkpt>
      <trkpt lat="46.80159" lon="1.04942">
        <ele>80</ele>
        <time>2021-03-23T14:18:12Z</time>
      </trkpt>
      <trkpt lat="46.80179" lon="1.0485">
        <ele>79</ele>
        <time>2021-03-23T14:18:24Z</time>
      </trkpt>
      <trkpt lat="46.80295" lon="1.04558">
        <ele>78</ele>
        <time>2021-03-23T14:19:05Z</time>
      </trkpt>
      <trkpt lat="46.80358" lon="1.04384">
        <ele>80</ele>
        <time>2021-03-23T14:19:29Z</time>
      </trkpt>
      <trkpt lat="46.80394" lon="1.04255">
        <ele>80</ele>
        <time>2021-03-23T14:19:46Z</time>
      </trkpt>
      <trkpt lat="46.80497" lon="1.04091">
        <ele>76</ele>
        <time>2021-03-23T14:20:13Z</time>
      </trkpt>
      <trkpt lat="46.80528" lon="1.03889">
        <ele>76</ele>
        <time>2021-03-23T14:20:38Z</time>
      </trkpt>
      <trkpt lat="46.80548" lon="1.03724">
        <ele>77</ele>
        <time>2021-03-23T14:20:59Z</time>
      </trkpt>
      <trkpt lat="46.80579" lon="1.03548">
        <ele>77</ele>
        <time>2021-03-23T14:21:21Z</time>
      </trkpt>
      <trkpt lat="46.80587" lon="1.03456">
        <ele>76</ele>
        <time>2021-03-23T14:21:32Z</time>
      </trkpt>
      <trkpt lat="46.80589" lon="1.03361">
        <ele>76</ele>
        <time>2021-03-23T14:21:44Z</time>
      </trkpt>
      <trkpt lat="46.80584" lon="1.03265">
        <ele>77</ele>
        <time>2021-03-23T14:21:55Z</time>
      </trkpt>
      <trkpt lat="46.80568" lon="1.0307">
        <ele>79</ele>
        <time>2021-03-23T14:22:19Z</time>
      </trkpt>
      <trkpt lat="46.80545" lon="1.02868">
        <ele>76</ele>
        <time>2021-03-23T14:22:44Z</time>
      </trkpt>
      <trkpt lat="46.80558" lon="1.02787">
        <ele>75</ele>
        <time>2021-03-23T14:22:54Z</time>
      </trkpt>
      <trkpt lat="46.80739" lon="1.01802">
        <ele>77</ele>
        <time>2021-03-23T14:24:59Z</time>
      </trkpt>
      <trkpt lat="46.80756" lon="1.01696">
        <ele>78</ele>
        <time>2021-03-23T14:25:12Z</time>
      </trkpt>
      <trkpt lat="46.80761" lon="1.01435">
        <ele>79</ele>
        <time>2021-03-23T14:25:44Z</time>
      </trkpt>
      <trkpt lat="46.80769" lon="1.01284">
        <ele>80</ele>
        <time>2021-03-23T14:26:02Z</time>
      </trkpt>
      <trkpt lat="46.80794" lon="1.01203">
        <ele>79</ele>
        <time>2021-03-23T14:26:13Z</time>
      </trkpt>
      <trkpt lat="46.80826" lon="1.01122">
        <ele>79</ele>
        <time>2021-03-23T14:26:24Z</time>
      </trkpt>
      <trkpt lat="46.80861" lon="1.01048">
        <ele>79</ele>
        <time>2021-03-23T14:26:35Z</time>
      </trkpt>
      <trkpt lat="46.80872" lon="1.00979">
        <ele>77</ele>
        <time>2021-03-23T14:26:44Z</time>
      </trkpt>
      <trkpt lat="46.80894" lon="1.00893">
        <ele>77</ele>
        <time>2021-03-23T14:26:55Z</time>
      </trkpt>
      <trkpt lat="46.80923" lon="1.00804">
        <ele>78</ele>
        <time>2021-03-23T14:27:07Z</time>
      </trkpt>
      <trkpt lat="46.80948" lon="1.00744">
        <ele>79</ele>
        <time>2021-03-23T14:27:16Z</time>
      </trkpt>
      <trkpt lat="46.80964" lon="1.00736">
        <ele>79</ele>
        <time>2021-03-23T14:27:19Z</time>
      </trkpt>
      <trkpt lat="46.80996" lon="1.0074">
        <ele>77</ele>
        <time>2021-03-23T14:27:24Z</time>
      </trkpt>
      <trkpt lat="46.81017" lon="1.00723">
        <ele>77</ele>
        <time>2021-03-23T14:27:29Z</time>
      </trkpt>
      <trkpt lat="46.8106" lon="1.00632">
        <ele>77</ele>
        <time>2021-03-23T14:27:42Z</time>
      </trkpt>
      <trkpt lat="46.81105" lon="1.00555">
        <ele>76</ele>
        <time>2021-03-23T14:27:54Z</time>
      </trkpt>
      <trkpt lat="46.81227" lon="1.00383">
        <ele>77</ele>
        <time>2021-03-23T14:28:25Z</time>
      </trkpt>
      <trkpt lat="46.81303" lon="1.00291">
        <ele>77</ele>
        <time>2021-03-23T14:28:42Z</time>
      </trkpt>
      <trkpt lat="46.81387" lon="1.0021">
        <ele>76</ele>
        <time>2021-03-23T14:29:00Z</time>
      </trkpt>
      <trkpt lat="46.81413" lon="1.00173">
        <ele>76</ele>
        <time>2021-03-23T14:29:06Z</time>
      </trkpt>
      <trkpt lat="46.81428" lon="1.00128">
        <ele>77</ele>
        <time>2021-03-23T14:29:13Z</time>
      </trkpt>
      <trkpt lat="46.81508" lon="0.99736">
        <ele>76</ele>
        <time>2021-03-23T14:30:02Z</time>
      </trkpt>
      <trkpt lat="46.81521" lon="0.99546">
        <ele>76</ele>
        <time>2021-03-23T14:30:26Z</time>
      </trkpt>
      <trkpt lat="46.81552" lon="0.99349">
        <ele>75</ele>
        <time>2021-03-23T14:30:50Z</time>
      </trkpt>
      <trkpt lat="46.81567" lon="0.9907">
        <ele>80</ele>
        <time>2021-03-23T14:31:24Z</time>
      </trkpt>
      <trkpt lat="46.81581" lon="0.99017">
        <ele>81</ele>
        <time>2021-03-23T14:31:31Z</time>
      </trkpt>
      <trkpt lat="46.81608" lon="0.98951">
        <ele>80</ele>
        <time>2021-03-23T14:31:41Z</time>
      </trkpt>
      <trkpt lat="46.81674" lon="0.98803">
        <ele>76</ele>
        <time>2021-03-23T14:32:02Z</time>
      </trkpt>
      <trkpt lat="46.81779" lon="0.98613">
        <ele>78</ele>
        <time>2021-03-23T14:32:32Z</time>
      </trkpt>
      <trkpt lat="46.81842" lon="0.9852">
        <ele>79</ele>
        <time>2021-03-23T14:32:48Z</time>
      </trkpt>
      <trkpt lat="46.81898" lon="0.98347">
        <ele>83</ele>
        <time>2021-03-23T14:33:11Z</time>
      </trkpt>
      <trkpt lat="46.8191" lon="0.9829">
        <ele>82</ele>
        <time>2021-03-23T14:33:18Z</time>
      </trkpt>
      <trkpt lat="46.81995" lon="0.98156">
        <ele>80</ele>
        <time>2021-03-23T14:33:41Z</time>
      </trkpt>
      <trkpt lat="46.82038" lon="0.98079">
        <ele>82</ele>
        <time>2021-03-23T14:33:53Z</time>
      </trkpt>
      <trkpt lat="46.8224" lon="0.97741">
        <ele>80</ele>
        <time>2021-03-23T14:34:47Z</time>
      </trkpt>
      <trkpt lat="46.82283" lon="0.97705">
        <ele>78</ele>
        <time>2021-03-23T14:34:56Z</time>
      </trkpt>
      <trkpt lat="46.82327" lon="0.97676">
        <ele>78</ele>
        <time>2021-03-23T14:35:05Z</time>
      </trkpt>
      <trkpt lat="46.82354" lon="0.97654">
        <ele>78</ele>
        <time>2021-03-23T14:35:10Z</time>
      </trkpt>
      <trkpt lat="46.82377" lon="0.97615">
        <ele>78</ele>
        <time>2021-03-23T14:35:16Z</time>
      </trkpt>
      <trkpt lat="46.82394" lon="0.97564">
        <ele>79</ele>
        <time>2021-03-23T14:35:23Z</time>
      </trkpt>
      <trkpt lat="46.824" lon="0.97476">
        <ele>82</ele>
        <time>2021-03-23T14:35:34Z</time>
      </trkpt>
      <trkpt lat="46.82415" lon="0.97396">
        <ele>84</ele>
        <time>2021-03-23T14:35:44Z</time>
      </trkpt>
      <trkpt lat="46.82434" lon="0.97329">
        <ele>84</ele>
        <time>2021-03-23T14:35:53Z</time>
      </trkpt>
      <trkpt lat="46.8249" lon="0.97186">
        <ele>76</ele>
        <time>2021-03-23T14:36:13Z</time>
      </trkpt>
      <trkpt lat="46.82553" lon="0.97038">
        <ele>75</ele>
        <time>2021-03-23T14:36:34Z</time>
      </trkpt>
      <trkpt lat="46.82586" lon="0.9699">
        <ele>77</ele>
        <time>2021-03-23T14:36:43Z</time>
      </trkpt>
      <trkpt lat="46.82659" lon="0.96894">
        <ele>78</ele>
        <time>2021-03-23T14:37:00Z</time>
      </trkpt>
      <trkpt lat="46.82685" lon="0.96845">
        <ele>80</ele>
        <time>2021-03-23T14:37:08Z</time>
      </trkpt>
      <trkpt lat="46.8271" lon="0.96774">
        <ele>83</ele>
        <time>2021-03-23T14:37:17Z</time>
      </trkpt>
      <trkpt lat="46.82742" lon="0.96715">
        <ele>81</ele>
        <time>2021-03-23T14:37:27Z</time>
      </trkpt>
      <trkpt lat="46.82901" lon="0.96517">
        <ele>80</ele>
        <time>2021-03-23T14:38:04Z</time>
      </trkpt>
      <trkpt lat="46.83034" lon="0.96416">
        <ele>76</ele>
        <time>2021-03-23T14:38:30Z</time>
      </trkpt>
      <trkpt lat="46.83073" lon="0.96391">
        <ele>73</ele>
        <time>2021-03-23T14:38:38Z</time>
      </trkpt>
      <trkpt lat="46.83144" lon="0.96337">
        <ele>74</ele>
        <time>2021-03-23T14:38:52Z</time>
      </trkpt>
      <trkpt lat="46.8319" lon="0.96307">
        <ele>77</ele>
        <time>2021-03-23T14:39:01Z</time>
      </trkpt>
      <trkpt lat="46.83198" lon="0.96265">
        <ele>79</ele>
        <time>2021-03-23T14:39:06Z</time>
      </trkpt>
      <trkpt lat="46.83198" lon="0.96214">
        <ele>81</ele>
        <time>2021-03-23T14:39:13Z</time>
      </trkpt>
      <trkpt lat="46.83194" lon="0.96184">
        <ele>83</ele>
        <time>2021-03-23T14:39:16Z</time>
      </trkpt>
      <trkpt lat="46.83121" lon="0.96105">
        <ele>81</ele>
        <time>2021-03-23T14:39:33Z</time>
      </trkpt>
      <trkpt lat="46.83096" lon="0.9605">
        <ele>81</ele>
        <time>2021-03-23T14:39:41Z</time>
      </trkpt>
      <trkpt lat="46.8306" lon="0.96004">
        <ele>81</ele>
        <time>2021-03-23T14:39:49Z</time>
      </trkpt>
      <trkpt lat="46.83023" lon="0.9597">
        <ele>81</ele>
        <time>2021-03-23T14:39:57Z</time>
      </trkpt>
      <trkpt lat="46.82941" lon="0.9593">
        <ele>82</ele>
        <time>2021-03-23T14:40:12Z</time>
      </trkpt>
      <trkpt lat="46.82902" lon="0.95892">
        <ele>83</ele>
        <time>2021-03-23T14:40:21Z</time>
      </trkpt>
      <trkpt lat="46.82826" lon="0.95828">
        <ele>88</ele>
        <time>2021-03-23T14:40:36Z</time>
      </trkpt>
      <trkpt lat="46.82795" lon="0.95797">
        <ele>91</ele>
        <time>2021-03-23T14:40:43Z</time>
      </trkpt>
      <trkpt lat="46.82769" lon="0.95724">
        <ele>94</ele>
        <time>2021-03-23T14:40:53Z</time>
      </trkpt>
      <trkpt lat="46.82736" lon="0.95651">
        <ele>97</ele>
        <time>2021-03-23T14:41:04Z</time>
      </trkpt>
      <trkpt lat="46.82698" lon="0.95593">
        <ele>98</ele>
        <time>2021-03-23T14:41:13Z</time>
      </trkpt>
      <trkpt lat="46.82667" lon="0.95522">
        <ele>98</ele>
        <time>2021-03-23T14:41:24Z</time>
      </trkpt>
      <trkpt lat="46.82636" lon="0.95476">
        <ele>98</ele>
        <time>2021-03-23T14:41:31Z</time>
      </trkpt>
      <trkpt lat="46.82605" lon="0.95411">
        <ele>98</ele>
        <time>2021-03-23T14:41:41Z</time>
      </trkpt>
      <trkpt lat="46.82551" lon="0.95242">
        <ele>103</ele>
        <time>2021-03-23T14:42:04Z</time>
      </trkpt>
      <trkpt lat="46.82527" lon="0.95151">
        <ele>105</ele>
        <time>2021-03-23T14:42:16Z</time>
      </trkpt>
      <trkpt lat="46.82508" lon="0.95094">
        <ele>106</ele>
        <time>2021-03-23T14:42:23Z</time>
      </trkpt>
      <trkpt lat="46.82442" lon="0.94915">
        <ele>108</ele>
        <time>2021-03-23T14:42:48Z</time>
      </trkpt>
      <trkpt lat="46.82366" lon="0.94726">
        <ele>110</ele>
        <time>2021-03-23T14:43:15Z</time>
      </trkpt>
      <trkpt lat="46.82324" lon="0.9467">
        <ele>111</ele>
        <time>2021-03-23T14:43:25Z</time>
      </trkpt>
      <trkpt lat="46.82286" lon="0.94609">
        <ele>109</ele>
        <time>2021-03-23T14:43:35Z</time>
      </trkpt>
      <trkpt lat="46.8228" lon="0.94526">
        <ele>110</ele>
        <time>2021-03-23T14:43:45Z</time>
      </trkpt>
      <trkpt lat="46.82272" lon="0.9434">
        <ele>122</ele>
        <time>2021-03-23T14:44:08Z</time>
      </trkpt>
      <trkpt lat="46.8226" lon="0.94226">
        <ele>125</ele>
        <time>2021-03-23T14:44:22Z</time>
      </trkpt>
      <trkpt lat="46.82244" lon="0.94112">
        <ele>129</ele>
        <time>2021-03-23T14:44:36Z</time>
      </trkpt>
      <trkpt lat="46.82234" lon="0.94085">
        <ele>130</ele>
        <time>2021-03-23T14:44:40Z</time>
      </trkpt>
      <trkpt lat="46.82167" lon="0.93967">
        <ele>131</ele>
        <time>2021-03-23T14:44:58Z</time>
      </trkpt>
      <trkpt lat="46.82144" lon="0.93922">
        <ele>131</ele>
        <time>2021-03-23T14:45:05Z</time>
      </trkpt>
      <trkpt lat="46.82031" lon="0.93569">
        <ele>132</ele>
        <time>2021-03-23T14:45:53Z</time>
      </trkpt>
      <trkpt lat="46.81953" lon="0.93257">
        <ele>132</ele>
        <time>2021-03-23T14:46:33Z</time>
      </trkpt>
      <trkpt lat="46.8193" lon="0.9315">
        <ele>132</ele>
        <time>2021-03-23T14:46:47Z</time>
      </trkpt>
      <trkpt lat="46.81911" lon="0.93037">
        <ele>133</ele>
        <time>2021-03-23T14:47:01Z</time>
      </trkpt>
      <trkpt lat="46.81882" lon="0.92938">
        <ele>134</ele>
        <time>2021-03-23T14:47:14Z</time>
      </trkpt>
      <trkpt lat="46.81829" lon="0.92795">
        <ele>134</ele>
        <time>2021-03-23T14:47:34Z</time>
      </trkpt>
      <trkpt lat="46.81819" lon="0.9272">
        <ele>135</ele>
        <time>2021-03-23T14:47:43Z</time>
      </trkpt>
      <trkpt lat="46.81812" lon="0.92642">
        <ele>135</ele>
        <time>2021-03-23T14:47:53Z</time>
      </trkpt>
      <trkpt lat="46.81804" lon="0.92486">
        <ele>137</ele>
        <time>2021-03-23T14:48:12Z</time>
      </trkpt>
      <trkpt lat="46.81707" lon="0.92036">
        <ele>136</ele>
        <time>2021-03-23T14:49:09Z</time>
      </trkpt>
      <trkpt lat="46.81684" lon="0.91948">
        <ele>136</ele>
        <time>2021-03-23T14:49:21Z</time>
      </trkpt>
      <trkpt lat="46.81591" lon="0.91676">
        <ele>138</ele>
        <time>2021-03-23T14:49:58Z</time>
      </trkpt>
      <trkpt lat="46.81589" lon="0.91609">
        <ele>139</ele>
        <time>2021-03-23T14:50:06Z</time>
      </trkpt>
      <trkpt lat="46.816" lon="0.91373">
        <ele>139</ele>
        <time>2021-03-23T14:50:35Z</time>
      </trkpt>
      <trkpt lat="46.8156" lon="0.91329">
        <ele>138</ele>
        <time>2021-03-23T14:50:44Z</time>
      </trkpt>
      <trkpt lat="46.81486" lon="0.91256">
        <ele>137</ele>
        <time>2021-03-23T14:51:00Z</time>
      </trkpt>
      <trkpt lat="46.8119" lon="0.90969">
        <ele>132</ele>
        <time>2021-03-23T14:52:03Z</time>
      </trkpt>
      <trkpt lat="46.80786" lon="0.90572">
        <ele>137</ele>
        <time>2021-03-23T14:53:29Z</time>
      </trkpt>
      <trkpt lat="46.80697" lon="0.9048">
        <ele>136</ele>
        <time>2021-03-23T14:53:49Z</time>
      </trkpt>
      <trkpt lat="46.80669" lon="0.90444">
        <ele>135</ele>
        <time>2021-03-23T14:53:55Z</time>
      </trkpt>
      <trkpt lat="46.80604" lon="0.9032">
        <ele>135</ele>
        <time>2021-03-23T14:54:14Z</time>
      </trkpt>
      <trkpt lat="46.80544" lon="0.90191">
        <ele>132</ele>
        <time>2021-03-23T14:54:33Z</time>
      </trkpt>
      <trkpt lat="46.80308" lon="0.89711">
        <ele>131</ele>
        <time>2021-03-23T14:55:45Z</time>
      </trkpt>
      <trkpt lat="46.80217" lon="0.89518">
        <ele>131</ele>
        <time>2021-03-23T14:56:14Z</time>
      </trkpt>
      <trkpt lat="46.80103" lon="0.89288">
        <ele>132</ele>
        <time>2021-03-23T14:56:49Z</time>
      </trkpt>
      <trkpt lat="46.7984" lon="0.88741">
        <ele>126</ele>
        <time>2021-03-23T14:58:10Z</time>
      </trkpt>
      <trkpt lat="46.79805" lon="0.88692">
        <ele>125</ele>
        <time>2021-03-23T14:58:19Z</time>
      </trkpt>
      <trkpt lat="46.79767" lon="0.88652">
        <ele>124</ele>
        <time>2021-03-23T14:58:27Z</time>
      </trkpt>
      <trkpt lat="46.79728" lon="0.88625">
        <ele>122</ele>
        <time>2021-03-23T14:58:35Z</time>
      </trkpt>
      <trkpt lat="46.79639" lon="0.88557">
        <ele>118</ele>
        <time>2021-03-23T14:58:52Z</time>
      </trkpt>
      <trkpt lat="46.79561" lon="0.88506">
        <ele>115</ele>
        <time>2021-03-23T14:59:08Z</time>
      </trkpt>
      <trkpt lat="46.79498" lon="0.88481">
        <ele>114</ele>
        <time>2021-03-23T14:59:19Z</time>
      </trkpt>
      <trkpt lat="46.79413" lon="0.88453">
        <ele>114</ele>
        <time>2021-03-23T14:59:35Z</time>
      </trkpt>
      <trkpt lat="46.79309" lon="0.88424">
        <ele>110</ele>
        <time>2021-03-23T14:59:54Z</time>
      </trkpt>
      <trkpt lat="46.7917" lon="0.88381">
        <ele>101</ele>
        <time>2021-03-23T15:00:19Z</time>
      </trkpt>
      <trkpt lat="46.79149" lon="0.88364">
        <ele>99</ele>
        <time>2021-03-23T15:00:23Z</time>
      </trkpt>
      <trkpt lat="46.79119" lon="0.88331">
        <ele>96</ele>
        <time>2021-03-23T15:00:30Z</time>
      </trkpt>
      <trkpt lat="46.78914" lon="0.88042">
        <ele>87</ele>
        <time>2021-03-23T15:01:21Z</time>
      </trkpt>
      <trkpt lat="46.78823" lon="0.87949">
        <ele>85</ele>
        <time>2021-03-23T15:01:40Z</time>
      </trkpt>
      <trkpt lat="46.78804" lon="0.87904">
        <ele>83</ele>
        <time>2021-03-23T15:01:47Z</time>
      </trkpt>
      <trkpt lat="46.78806" lon="0.87843">
        <ele>83</ele>
        <time>2021-03-23T15:01:54Z</time>
      </trkpt>
      <trkpt lat="46.78837" lon="0.87579">
        <ele>84</ele>
        <time>2021-03-23T15:02:27Z</time>
      </trkpt>
      <trkpt lat="46.78839" lon="0.875">
        <ele>85</ele>
        <time>2021-03-23T15:02:36Z</time>
      </trkpt>
      <trkpt lat="46.78833" lon="0.87413">
        <ele>83</ele>
        <time>2021-03-23T15:02:47Z</time>
      </trkpt>
      <trkpt lat="46.78827" lon="0.87363">
        <ele>85</ele>
        <time>2021-03-23T15:02:53Z</time>
      </trkpt>
      <trkpt lat="46.78826" lon="0.8723">
        <ele>86</ele>
        <time>2021-03-23T15:03:10Z</time>
      </trkpt>
      <trkpt lat="46.78869" lon="0.86849">
        <ele>95</ele>
        <time>2021-03-23T15:03:57Z</time>
      </trkpt>
      <trkpt lat="46.78863" lon="0.86831">
        <ele>95</ele>
        <time>2021-03-23T15:03:59Z</time>
      </trkpt>
      <trkpt lat="46.78825" lon="0.86825">
        <ele>90</ele>
        <time>2021-03-23T15:04:06Z</time>
      </trkpt>
      <trkpt lat="46.788" lon="0.86817">
        <ele>88</ele>
        <time>2021-03-23T15:04:10Z</time>
      </trkpt>
      <trkpt lat="46.78779" lon="0.86778">
        <ele>85</ele>
        <time>2021-03-23T15:04:16Z</time>
      </trkpt>
      <trkpt lat="46.78763" lon="0.86774">
        <ele>83</ele>
        <time>2021-03-23T15:04:19Z</time>
      </trkpt>
      <trkpt lat="46.78698" lon="0.86784">
        <ele>77</ele>
        <time>2021-03-23T15:04:31Z</time>
      </trkpt>
      <trkpt lat="46.78732" lon="0.86475">
        <ele>71</ele>
        <time>2021-03-23T15:05:09Z</time>
      </trkpt>
      <trkpt lat="46.78754" lon="0.86381">
        <ele>71</ele>
        <time>2021-03-23T15:05:21Z</time>
      </trkpt>
      <trkpt lat="46.78775" lon="0.86223">
        <ele>69</ele>
        <time>2021-03-23T15:05:41Z</time>
      </trkpt>
      <trkpt lat="46.78806" lon="0.86152">
        <ele>70</ele>
        <time>2021-03-23T15:05:51Z</time>
      </trkpt>
      <trkpt lat="46.78828" lon="0.86047">
        <ele>68</ele>
        <time>2021-03-23T15:06:04Z</time>
      </trkpt>
      <trkpt lat="46.78886" lon="0.85821">
        <ele>69</ele>
        <time>2021-03-23T15:06:34Z</time>
      </trkpt>
      <trkpt lat="46.78885" lon="0.85715">
        <ele>69</ele>
        <time>2021-03-23T15:06:47Z</time>
      </trkpt>
      <trkpt lat="46.7888" lon="0.85632">
        <ele>67</ele>
        <time>2021-03-23T15:06:57Z</time>
      </trkpt>
      <trkpt lat="46.78795" lon="0.85595">
        <ele>64</ele>
        <time>2021-03-23T15:07:13Z</time>
      </trkpt>
      <trkpt lat="46.78773" lon="0.85617">
        <ele>64</ele>
        <time>2021-03-23T15:07:17Z</time>
      </trkpt>
      <trkpt lat="46.78761" lon="0.85678">
        <ele>64</ele>
        <time>2021-03-23T15:07:25Z</time>
      </trkpt>
    </trkseg>
  </trk>
</gpx>